Time;durP1;ratioP1;P1;durP2;ratioP2;P2;SDS_P1;SDS_P2;PMS_P1;PMS_P2;Temp;Humidity;BMP_temperature;BMP_pressure;BME280_temperature;BME280_humidity;BME280_pressure;Samples;Min_cycle;Max_cycle;Signal;HPM_P1;HPM_P2
2021/10/04 00:02:07;;;;;;;5.65;1.10;;;;;;;10.92;76.38;99491.91;4964182;28;20075;-75
2021/10/04 00:04:36;;;;;;;3.67;1.05;;;;;;;10.86;76.36;99479.38;4960252;28;20022;-77
2021/10/04 00:07:05;;;;;;;0.85;0.43;;;;;;;10.96;76.35;99498.41;4956936;28;20023;-77
2021/10/04 00:09:33;;;;;;;0.50;0.20;;;;;;;11.02;76.92;99506.56;4959625;28;20035;-77
2021/10/04 00:12:59;;;;;;;2.60;0.70;;;;;;;10.88;76.55;99477.16;4953077;28;20026;-77
2021/10/04 00:15:25;;;;;;;0.80;0.38;;;;;;;10.91;76.93;99484.78;4960899;28;20058;-78
2021/10/04 00:18:01;;;;;;;0.65;0.30;;;;;;;11.02;76.50;99493.69;4963721;28;20106;-77
2021/10/04 00:20:35;;;;;;;0.45;0.20;;;;;;;11.05;76.97;99495.03;4960835;28;20029;-77
2021/10/04 00:23:39;;;;;;;0.32;0.20;;;;;;;11.21;76.46;99504.66;4959801;28;20037;-77
2021/10/04 00:26:04;;;;;;;0.45;0.30;;;;;;;11.13;76.25;99491.66;4959840;28;20058;-77
2021/10/04 00:28:40;;;;;;;;;;;;;;;;;;;;;
2021/10/04 00:34:37;;;;;;;0.35;0.20;;;;;;;11.48;76.43;99508.72;4904778;29;19919;-79
2021/10/04 00:37:05;;;;;;;0.55;0.30;;;;;;;11.53;76.14;99494.94;4913617;29;20028;-79
2021/10/04 00:39:52;;;;;;;;;;;;;;;;;;;;;
2021/10/04 00:42:20;;;;;;;0.73;0.60;;;;;;;11.66;76.51;99494.22;4899505;29;20032;-80
2021/10/04 00:48:26;;;;;;;;;;;;;;;11.93;76.31;99519.31;4859380;29;20048;-78
2021/10/04 00:51:39;;;;;;;2.10;0.60;;;;;;;11.95;75.96;99517.13;4911979;29;19940;-76
2021/10/04 00:54:05;;;;;;;1.85;0.63;;;;;;;11.97;76.38;99526.69;4896858;29;20110;-78
2021/10/04 00:56:33;;;;;;;2.53;0.40;;;;;;;11.99;76.16;99518.16;4938604;28;20114;-80
2021/10/04 00:58:58;;;;;;;3.45;0.50;;;;;;;11.99;76.03;99518.97;4964429;28;20197;-81
2021/10/04 01:01:28;;;;;;;6.85;0.93;;;;;;;12.03;76.41;99528.22;4968014;28;20433;-82
2021/10/04 01:04:05;;;;;;;3.17;0.90;;;;;;;12.02;76.03;99510.16;4970826;28;20041;-81
2021/10/04 01:06:33;;;;;;;8.27;1.13;;;;;;;12.03;76.84;99506.31;4958485;28;20489;-81
2021/10/04 01:08:59;;;;;;;2.75;0.73;;;;;;;12.08;76.66;99510.09;4969110;28;20030;-78
2021/10/04 01:11:25;;;;;;;3.45;0.90;;;;;;;12.10;76.76;99503.19;4945856;28;20038;-79
2021/10/04 01:13:51;;;;;;;14.95;1.40;;;;;;;12.07;76.40;99498.28;4974255;28;20031;-79
2021/10/04 01:16:20;;;;;;;2.63;0.60;;;;;;;12.08;77.16;99501.88;4967922;28;20065;-79
2021/10/04 01:19:03;;;;;;;4.32;1.27;;;;;;;12.10;77.28;99496.88;4972753;28;20027;-81
2021/10/04 01:21:29;;;;;;;5.15;0.95;;;;;;;11.94;77.26;99480.69;4967792;28;20019;-78
2021/10/04 01:23:59;;;;;;;1.60;0.55;;;;;;;12.09;77.15;99506.22;4959561;28;20498;-79
2021/10/04 01:26:30;;;;;;;5.63;0.90;;;;;;;11.95;77.27;99484.25;4956041;28;20023;-78
2021/10/04 01:29:01;;;;;;;5.47;1.02;;;;;;;11.97;76.61;99493.81;4962950;28;20474;-79
2021/10/04 01:31:34;;;;;;;1.63;1.13;;;;;;;12.07;76.97;99505.72;4957648;28;20160;-79
2021/10/04 01:34:00;;;;;;;3.95;1.10;;;;;;;11.97;76.96;99493.81;4977209;28;20129;-77
2021/10/04 01:36:29;;;;;;;4.43;0.88;;;;;;;11.97;76.19;99499.28;4961882;28;20060;-81
2021/10/04 01:39:02;;;;;;;0.93;0.88;;;;;;;12.04;76.66;99502.44;4965535;29;20024;-80
2021/10/04 01:41:31;;;;;;;2.15;0.93;;;;;;;12.01;76.23;99494.81;4980984;28;20054;-79
2021/10/04 01:44:27;;;;;;;5.25;1.00;;;;;;;12.09;76.20;99508.97;4974493;28;20090;-78
2021/10/04 01:47:02;;;;;;;4.40;0.75;;;;;;;12.08;76.44;99518.31;4973513;28;20031;-79
2021/10/04 01:49:30;;;;;;;4.97;0.70;;;;;;;12.07;77.42;99535.84;4964244;28;20066;-77
2021/10/04 01:52:03;;;;;;;7.20;1.63;;;;;;;11.87;78.33;99504.88;4974661;28;20023;-79
2021/10/04 01:54:31;;;;;;;5.47;0.80;;;;;;;11.76;79.33;99489.72;4974577;28;20026;-78
2021/10/04 01:56:56;;;;;;;3.03;0.63;;;;;;;11.65;79.46;99503.56;4970912;28;20042;-79
2021/10/04 01:59:39;;;;;;;2.88;0.60;;;;;;;11.47;80.12;99487.94;4972983;28;20034;-81
2021/10/04 02:02:05;;;;;;;0.73;0.38;;;;;;;11.41;80.72;99497.31;4970238;28;20085;-83
2021/10/04 02:04:31;;;;;;;1.15;0.35;;;;;;;11.41;80.43;99497.31;4960227;28;20105;-82
2021/10/04 02:06:57;;;;;;;1.52;0.40;;;;;;;11.34;81.12;99498.47;4968866;28;20023;-85
2021/10/04 02:09:50;;;;;;;;;;;;;;;;;;;;;
2021/10/04 02:12:35;;;;;;;5.03;0.60;;;;;;;11.21;81.30;99485.50;4971920;28;20096;-86
2021/10/04 02:15:02;;;;;;;0.63;0.28;;;;;;;11.29;82.24;99495.81;4968510;28;20033;-84
2021/10/04 02:17:38;;;;;;;2.33;0.30;;;;;;;11.15;82.27;99483.97;4968390;28;20015;-84
2021/10/04 02:20:09;;;;;;;4.50;0.68;;;;;;;11.08;81.69;99450.66;4957071;28;20030;-82
2021/10/04 02:22:34;;;;;;;1.33;0.22;;;;;;;11.10;82.07;99453.94;4986308;28;20011;-82
2021/10/04 02:25:04;;;;;;;3.10;0.40;;;;;;;11.02;82.16;99457.31;4977852;28;20050;-80
2021/10/04 02:27:30;;;;;;;0.95;0.20;;;;;;;11.15;82.29;99481.22;4978718;28;20046;-82
2021/10/04 02:29:55;;;;;;;3.08;0.47;;;;;;;11.14;82.18;99482.31;4962481;28;21287;-82
2021/10/04 02:32:21;;;;;;;0.45;0.40;;;;;;;11.04;82.63;99463.28;4967834;28;20063;-82
2021/10/04 02:34:46;;;;;;;3.45;0.32;;;;;;;11.04;82.63;99460.56;4969857;28;20078;-82
2021/10/04 02:37:14;;;;;;;2.17;0.82;;;;;;;11.08;82.11;99467.06;4954970;28;20046;-81
2021/10/04 02:39:50;;;;;;;0.93;0.50;;;;;;;11.07;82.67;99460.81;4962205;28;20867;-83
2021/10/04 02:42:42;;;;;;;1.52;0.85;;;;;;;11.10;82.30;99464.88;4969503;28;20026;-82
2021/10/04 02:45:46;;;;;;;;;;;;;;;;;;;;;
2021/10/04 02:48:38;;;;;;;2.42;0.60;;;;;;;11.24;82.33;99471.25;4966753;28;20066;-84
2021/10/04 02:51:16;;;;;;;0.47;0.35;;;;;;;11.27;82.27;99476.16;4962800;28;20034;-83
2021/10/04 02:53:59;;;;;;;0.93;0.50;;;;;;;11.31;82.07;99487.31;4974332;28;20031;-79
2021/10/04 02:56:37;;;;;;;;;;;;;;;;;;;;;
2021/10/04 02:59:05;;;;;;;0.30;0.20;;;;;;;11.20;82.06;99481.16;4950907;28;20041;-80
2021/10/04 03:01:31;;;;;;;0.30;0.28;;;;;;;11.23;82.25;99483.31;4966122;28;20043;-81
2021/10/04 03:04:09;;;;;;;;;;;;;;;;;;;;;
2021/10/04 03:06:35;;;;;;;0.10;0.10;;;;;;;11.12;82.12;99459.91;4968894;28;20150;-86
2021/10/04 03:09:00;;;;;;;0.10;0.00;;;;;;;11.10;81.54;99478.56;4977767;28;20058;-82
2021/10/04 03:11:28;;;;;;;0.20;0.10;;;;;;;11.18;82.09;99489.69;4970110;28;20035;-84
2021/10/04 03:17:36;;;;;;;1.10;0.20;;;;;;;10.90;81.29;99485.88;4918774;29;20652;-82
2021/10/04 03:20:10;;;;;;;0.98;0.28;;;;;;;10.80;81.96;99472.34;4916697;28;20070;-85
2021/10/04 03:22:42;;;;;;;0.30;0.20;;;;;;;10.89;82.10;99491.66;4972132;28;20042;-85
2021/10/04 03:25:21;;;;;;;;;;;;;;;;;;;;;
2021/10/04 03:27:48;;;;;;;0.45;0.30;;;;;;;10.69;81.75;99477.09;4974031;28;20071;-87
2021/10/04 03:30:26;;;;;;;;;;;;;;;;;;;;;
2021/10/04 03:33:20;;;;;;;0.10;0.10;;;;;;;10.61;81.89;99475.81;4969567;28;20110;-82
2021/10/04 03:36:00;;;;;;;0.10;0.08;;;;;;;10.79;82.59;99503.50;4969321;28;20201;-83
2021/10/04 03:38:35;;;;;;;0.22;0.13;;;;;;;10.65;81.87;99481.53;4980753;28;20030;-85
2021/10/04 03:41:00;;;;;;;0.85;0.40;;;;;;;10.71;82.35;99491.28;4985093;28;20035;-83
2021/10/04 03:43:26;;;;;;;0.43;0.17;;;;;;;10.76;82.06;99501.34;4974626;28;20045;-82
2021/10/04 03:45:52;;;;;;;0.43;0.40;;;;;;;10.72;81.69;99506.59;4971805;28;20030;-83
2021/10/04 03:48:20;;;;;;;0.10;0.00;;;;;;;10.66;82.04;99510.50;4963086;28;20039;-83
2021/10/04 03:50:46;;;;;;;0.08;0.00;;;;;;;10.67;81.83;99524.97;4973102;28;20058;-84
2021/10/04 03:53:19;;;;;;;0.00;0.00;;;;;;;10.60;81.65;99528.88;4972194;28;20023;-82
2021/10/04 03:56:01;;;;;;;0.10;0.10;;;;;;;10.46;82.09;99514.25;4963640;28;20039;-84
2021/10/04 03:58:26;;;;;;;0.00;0.00;;;;;;;10.37;82.04;99513.25;4973057;28;20070;-83
2021/10/04 04:00:52;;;;;;;0.00;0.00;;;;;;;10.40;81.74;99512.66;4972200;28;20055;-86
2021/10/04 04:03:49;;;;;;;0.00;0.00;;;;;;;10.44;82.00;99514.53;4981780;28;20055;-86
2021/10/04 04:06:17;;;;;;;0.00;0.00;;;;;;;10.36;82.26;99509.66;4971828;28;20019;-86
2021/10/04 04:09:39;;;;;;;0.00;0.00;;;;;;;10.61;81.78;99544.16;4978093;28;20027;-86
2021/10/04 04:12:06;;;;;;;0.00;0.00;;;;;;;10.58;81.86;99547.47;4973901;28;20030;-84
2021/10/04 04:14:31;;;;;;;0.75;0.05;;;;;;;10.40;82.24;99529.06;4986074;28;20508;-85
2021/10/04 04:16:57;;;;;;;0.40;0.10;;;;;;;10.39;82.21;99522.75;4998022;28;20028;-90
2021/10/04 04:24:16;;;;;;;;;;;;;;;;;;;;;
2021/10/04 04:27:45;;;;;;;0.00;0.00;;;;;;;10.77;82.18;99563.16;4841148;29;20032;-81
2021/10/04 04:30:14;;;;;;;2.22;0.10;;;;;;;10.62;81.84;99542.25;4861810;29;20048;-79
2021/10/04 04:32:42;;;;;;;0.30;0.10;;;;;;;10.67;81.96;99555.06;4916276;29;20035;-79
2021/10/04 04:35:13;;;;;;;0.10;0.10;;;;;;;10.70;82.07;99543.53;4916511;29;20031;-79
2021/10/04 04:37:43;;;;;;;0.00;0.00;;;;;;;10.69;81.82;99542.72;4910182;29;20606;-78
2021/10/04 04:40:38;;;;;;;0.00;0.00;;;;;;;10.68;81.73;99548.50;4912125;29;20032;-78
2021/10/04 04:43:38;;;;;;;0.10;0.00;;;;;;;10.80;81.99;99560.66;4924470;29;20055;-81
2021/10/04 04:46:23;;;;;;;;;;;;;;;;;;;;;
2021/10/04 04:52:41;;;;;;;0.03;0.00;;;;;;;10.74;81.91;99547.34;4947761;28;20162;-79
2021/10/04 04:55:18;;;;;;;;;;;;;;;;;;;;;
2021/10/04 04:57:51;;;;;;;0.00;0.00;;;;;;;10.71;82.12;99535.03;4969962;28;20888;-80
2021/10/04 05:00:20;;;;;;;0.00;0.00;;;;;;;10.70;81.84;99538.06;4966774;28;20632;-78
2021/10/04 05:02:55;;;;;;;1.48;0.03;;;;;;;10.56;81.68;99530.53;4961819;28;20118;-80
2021/10/04 05:05:38;;;;;;;1.52;0.00;;;;;;;10.59;81.46;99557.31;4965901;28;20026;-77
2021/10/04 05:08:06;;;;;;;0.10;0.00;;;;;;;10.37;81.81;99540.56;4973041;28;20058;-79
2021/10/04 05:10:59;;;;;;;0.32;0.10;;;;;;;10.27;81.74;99536.78;4970099;28;20019;-77
2021/10/04 05:13:25;;;;;;;0.00;0.00;;;;;;;10.17;82.24;99528.66;4970767;28;20027;-77
2021/10/04 05:15:53;;;;;;;0.10;0.10;;;;;;;10.09;81.39;99530.09;4963450;28;20026;-78
2021/10/04 05:18:18;;;;;;;0.30;0.10;;;;;;;10.18;81.94;99543.94;4966470;28;20381;-83
2021/10/04 05:20:44;;;;;;;0.30;0.10;;;;;;;10.13;81.93;99552.16;4968204;28;20113;-83
2021/10/04 05:23:25;;;;;;;;;;;;;;;;;;;;;
2021/10/04 05:26:09;;;;;;;0.80;0.10;;;;;;;9.94;81.84;99533.75;4972288;28;20125;-84
2021/10/04 05:28:52;;;;;;;0.73;0.20;;;;;;;10.01;82.26;99559.91;4976856;28;20385;-79
2021/10/04 05:31:20;;;;;;;0.28;0.10;;;;;;;9.88;82.63;99540.31;4973557;28;20027;-80
2021/10/04 05:34:03;;;;;;;0.85;0.20;;;;;;;9.98;82.24;99565.94;4976630;28;20023;-79
2021/10/04 05:36:42;;;;;;;;;;;;;;;;;;;;;
2021/10/04 05:39:18;;;;;;;;;;;;;;;;;;;;;
2021/10/04 05:45:15;;;;;;;4.78;0.28;;;;;;;9.66;82.04;99537.19;4964881;28;20107;-80
2021/10/04 05:47:51;;;;;;;;;;;;;;;;;;;;;
2021/10/04 05:50:56;;;;;;;;;;;;;;;;;;;;;
2021/10/04 05:53:11;;;;;;;0.35;0.20;;;;;;;9.63;82.69;99548.69;4973947;28;20034;-80
2021/10/04 05:56:03;;;;;;;6.55;0.28;;;;;;;9.72;82.28;99560.63;4966644;28;20042;-80
2021/10/04 05:58:49;;;;;;;;;;;;;;;;;;;;;
2021/10/04 06:01:48;;;;;;;;;;;;;;;9.66;82.23;99559.03;4968595;28;20031;-80
2021/10/04 06:04:23;;;;;;;;;;;;;;;;;;;;;
2021/10/04 06:06:49;;;;;;;0.32;0.32;;;;;;;9.57;81.67;99567.00;4966654;28;20111;-79
2021/10/04 06:15:04;;;;;;;0.30;0.20;;;;;;;9.38;82.60;99544.97;4964037;28;19939;-78
2021/10/04 06:17:30;;;;;;;0.68;0.30;;;;;;;9.51;82.63;99559.94;4969503;28;20027;-77
2021/10/04 06:19:55;;;;;;;0.80;0.20;;;;;;;9.38;82.84;99550.44;4963401;28;20054;-76
2021/10/04 06:22:25;;;;;;;4.55;0.28;;;;;;;9.52;82.96;99565.09;4963543;28;20111;-78
2021/10/04 06:24:50;;;;;;;0.20;0.20;;;;;;;9.45;82.80;99542.75;4973459;28;20437;-76
2021/10/04 06:27:16;;;;;;;0.00;0.00;;;;;;;9.48;82.66;99547.66;4977413;28;20092;-79
2021/10/04 06:29:42;;;;;;;2.53;0.60;;;;;;;9.57;82.52;99562.34;4962314;28;20031;-77
2021/10/04 06:35:29;;;;;;;0.03;0.03;;;;;;;9.53;82.55;99569.44;4976402;28;20033;-79
2021/10/04 06:37:59;;;;;;;1.00;0.20;;;;;;;9.49;82.95;99560.22;4975058;28;20043;-78
2021/10/04 06:40:46;;;;;;;0.43;0.10;;;;;;;9.57;83.23;99570.53;4931246;29;20031;-80
2021/10/04 06:43:14;;;;;;;1.23;0.17;;;;;;;9.56;83.15;99568.91;4951075;28;20072;-78
2021/10/04 06:45:59;;;;;;;0.40;0.20;;;;;;;9.62;83.22;99572.41;4955367;28;20061;-79
2021/10/04 06:48:25;;;;;;;2.67;0.57;;;;;;;9.71;82.87;99578.09;4949377;28;20114;-79
2021/10/04 06:50:51;;;;;;;0.47;0.22;;;;;;;9.79;83.10;99586.53;4953580;28;20146;-76
2021/10/04 06:53:16;;;;;;;0.20;0.13;;;;;;;9.84;83.28;99579.41;4963474;28;20094;-75
2021/10/04 06:55:45;;;;;;;0.15;0.10;;;;;;;9.95;83.41;99589.19;4971692;28;20061;-75
2021/10/04 06:58:10;;;;;;;0.20;0.10;;;;;;;10.01;83.08;99600.88;4970253;28;20027;-75
2021/10/04 07:00:36;;;;;;;1.23;0.20;;;;;;;10.05;83.38;99593.78;4971608;28;20381;-74
2021/10/04 07:03:01;;;;;;;0.68;0.40;;;;;;;10.07;82.86;99602.50;4961715;28;20035;-75
2021/10/04 07:05:27;;;;;;;0.95;0.30;;;;;;;10.10;83.02;99612.84;4946709;28;20325;-74
2021/10/04 07:08:31;;;;;;;0.82;0.22;;;;;;;10.16;82.89;99613.63;4971448;28;20046;-79
2021/10/04 07:10:58;;;;;;;2.40;0.20;;;;;;;10.11;83.04;99604.38;4967754;28;20470;-79
2021/10/04 07:13:26;;;;;;;1.40;0.20;;;;;;;10.21;83.03;99625.34;4971137;28;20039;-82
2021/10/04 07:15:54;;;;;;;1.10;0.00;;;;;;;10.22;83.11;99616.06;4964927;28;20099;-78
2021/10/04 07:18:20;;;;;;;0.20;0.10;;;;;;;10.29;82.89;99629.38;4970193;28;20119;-79
2021/10/04 07:20:55;;;;;;;;;;;;;;;;;;;;;
2021/10/04 07:23:47;;;;;;;;;;;;;;;;;;;;;
2021/10/04 07:26:25;;;;;;;;;;;;;;;;;;;;;
2021/10/04 07:32:20;;;;;;;0.40;0.10;;;;;;;10.62;83.12;99641.47;4920715;28;20059;-79
2021/10/04 07:44:20;;;;;;;0.73;0.20;;;;;;;11.16;82.42;99649.78;4928834;28;20113;-78
2021/10/04 07:50:59;;;;;;;;;;;;;;;;;;;;;
2021/10/04 07:58:32;;;;;;;;;;;;;;;;;;;;;
2021/10/04 08:02:08;;;;;;;;;;;;;;;;;;;;;
2021/10/04 08:05:27;;;;;;;6.72;0.38;;;;;;;12.19;81.89;99643.94;4731777;30;20147;-79
2021/10/04 08:08:25;;;;;;;3.13;0.50;;;;;;;12.11;82.13;99614.44;4740868;30;20044;-79
2021/10/04 08:11:38;;;;;;;;;;;;;;;;;;;;;
2021/10/04 08:14:19;;;;;;;2.67;0.60;;;;;;;12.38;82.55;99624.72;4743078;30;20116;-79
2021/10/04 08:16:45;;;;;;;3.50;0.32;;;;;;;12.52;82.88;99649.47;4754249;30;20044;-79
2021/10/04 08:19:40;;;;;;;5.53;0.50;;;;;;;12.57;82.49;99632.09;4745808;30;20040;-79
2021/10/04 08:22:34;;;;;;;;;;;;;;;;;;;;;
2021/10/04 08:32:29;;;;;;;4.38;0.55;;;;;;;13.19;81.75;99669.50;4765739;30;20062;-76
2021/10/04 08:34:57;;;;;;;1.90;0.40;;;;;;;13.30;80.67;99670.13;4816266;29;20074;-77
2021/10/04 08:44:12;;;;;;;4.28;0.77;;;;;;;14.05;78.06;99674.44;4970794;28;20086;-75
2021/10/04 08:57:01;;;;;;;;;;;;;;;;;;;;;
2021/10/04 09:00:18;;;;;;;;;;;;;;;;;;;;;
2021/10/04 09:03:21;;;;;;;1.45;0.55;;;;;;;15.73;67.34;99694.59;4844013;29;20042;-76
2021/10/04 09:20:14;;;;;;;4.07;0.80;;;;;;;17.70;61.45;99709.44;4801987;29;20803;-75
2021/10/04 09:22:44;;;;;;;1.65;0.52;;;;;;;18.08;59.88;99697.56;4811137;29;20049;-77
2021/10/04 09:25:19;;;;;;;2.88;0.30;;;;;;;18.21;58.64;99684.63;4864098;29;20060;-75
2021/10/04 09:28:45;;;;;;;2.35;0.43;;;;;;;18.06;58.07;99683.25;4885209;29;20104;-75
2021/10/04 09:31:33;;;;;;;0.85;0.32;;;;;;;18.50;59.05;99692.09;4926184;29;20041;-76
2021/10/04 09:35:04;;;;;;;;;;;;;;;;;;;;;
2021/10/04 09:37:37;;;;;;;6.78;0.70;;;;;;;19.00;54.19;99688.41;4957100;28;20103;-72
2021/10/04 09:40:15;;;;;;;;;;;;;;;;;;;;;
2021/10/04 09:42:44;;;;;;;4.53;0.60;;;;;;;19.29;52.41;99686.66;4956734;28;20118;-77
2021/10/04 09:45:14;;;;;;;2.92;0.90;;;;;;;19.40;52.78;99687.03;4942502;29;20114;-76
2021/10/04 09:47:40;;;;;;;1.75;0.40;;;;;;;19.52;51.49;99694.53;4926412;29;20035;-75
2021/10/04 09:50:30;;;;;;;4.47;0.60;;;;;;;19.69;51.00;99697.09;4944550;29;20054;-75
2021/10/04 09:53:00;;;;;;;1.52;0.50;;;;;;;19.91;50.88;99692.31;4962644;28;20047;-75
2021/10/04 09:55:30;;;;;;;1.35;0.60;;;;;;;20.28;49.78;99702.56;4963755;28;20091;-75
2021/10/04 09:58:02;;;;;;;5.82;0.70;;;;;;;20.48;47.45;99698.03;4964783;28;20027;-74
2021/10/04 10:00:33;;;;;;;0.75;0.52;;;;;;;20.67;46.67;99695.44;4933378;29;20050;-74
2021/10/04 10:03:00;;;;;;;0.80;0.40;;;;;;;20.77;46.55;99696.13;4939575;29;20035;-75
2021/10/04 10:05:34;;;;;;;4.82;0.47;;;;;;;20.98;46.00;99702.28;4939753;29;20030;-73
2021/10/04 10:08:20;;;;;;;5.38;0.80;;;;;;;21.28;45.41;99708.28;4918179;29;20091;-79
2021/10/04 10:10:57;;;;;;;3.45;1.27;;;;;;;21.47;45.46;99714.31;4955625;28;20035;-76
2021/10/04 10:51:10;;;;;;;1.42;0.63;;;;;;;24.20;38.27;99703.31;4863510;29;20072;-76
2021/10/04 10:53:35;;;;;;;1.08;0.70;;;;;;;23.87;38.72;99702.03;4887344;29;20534;-77
2021/10/04 10:56:05;;;;;;;1.38;0.47;;;;;;;23.34;39.71;99724.97;4902270;29;20088;-75
2021/10/04 10:58:49;;;;;;;4.18;0.70;;;;;;;22.35;41.82;99703.00;4890177;29;20032;-77
2021/10/04 11:02:10;;;;;;;6.55;0.80;;;;;;;21.76;43.39;99705.56;4909002;29;20051;-77
2021/10/04 11:11:56;;;;;;;1.35;0.40;;;;;;;20.26;45.34;99718.78;4915085;28;20039;-76
2021/10/04 11:14:22;;;;;;;2.47;0.70;;;;;;;19.87;46.77;99706.06;4959007;28;20105;-77
2021/10/04 11:17:09;;;;;;;3.85;0.80;;;;;;;19.72;47.92;99684.53;4948368;29;20516;-75
2021/10/04 11:20:10;;;;;;;;;;;;;;;;;;;;;
2021/10/04 11:22:59;;;;;;;;;;;;;;;;;;;;;
2021/10/04 11:26:11;;;;;;;;;;;;;;;;;;;;;
2021/10/04 11:29:47;;;;;;;;;;;;;;;;;;;;;
2021/10/04 11:36:15;;;;;;;3.53;0.68;;;;;;;20.94;40.99;99693.06;4903044;29;20039;-77
2021/10/04 11:39:03;;;;;;;1.65;0.60;;;;;;;20.81;41.95;99719.25;4947353;28;20131;-79
2021/10/04 11:42:19;;;;;;;3.70;0.38;;;;;;;20.83;42.44;99705.81;4958683;28;20042;-79
2021/10/04 11:48:58;;;;;;;;;;;;;;;;;;;;;
2021/10/04 12:01:52;;;;;;;1.75;0.32;;;;;;;22.20;41.70;99698.25;4894032;29;20061;-81
2021/10/04 12:07:48;;;;;;;0.52;0.38;;;;;;;20.74;42.79;99692.88;4859750;29;20037;-84
2021/10/04 12:11:02;;;;;;;5.38;1.00;;;;;;;19.62;45.83;99691.31;4860605;29;20041;-83
2021/10/04 12:13:39;;;;;;;1.58;0.60;;;;;;;18.67;52.33;99697.50;4847926;29;20034;-76
2021/10/04 12:16:10;;;;;;;1.70;0.43;;;;;;;17.75;58.76;99684.34;4869752;29;20041;-76
2021/10/04 12:18:49;;;;;;;2.22;0.60;;;;;;;17.04;62.07;99694.00;4922739;28;20034;-77
2021/10/04 12:21:25;;;;;;;4.22;0.77;;;;;;;16.74;63.50;99697.41;4934306;29;20358;-76
2021/10/04 12:24:15;;;;;;;9.50;1.67;;;;;;;17.07;61.38;99693.34;4936232;29;20505;-73
2021/10/04 12:26:56;;;;;;;3.33;0.40;;;;;;;17.42;57.23;99698.78;4949594;28;20031;-76
2021/10/04 12:29:32;;;;;;;2.40;0.60;;;;;;;17.25;56.15;99675.59;4929437;29;20381;-75
2021/10/04 12:32:16;;;;;;;1.85;0.47;;;;;;;17.20;56.27;99681.31;4939550;29;20026;-74
2021/10/04 12:35:01;;;;;;;0.85;0.47;;;;;;;17.81;55.78;99677.50;4936514;29;20031;-74
2021/10/04 12:37:51;;;;;;;;;;;;;;;;;;;;;
2021/10/04 12:40:45;;;;;;;2.80;0.47;;;;;;;19.85;49.30;99688.94;4957060;28;20142;-74
2021/10/04 12:43:21;;;;;;;6.65;0.82;;;;;;;19.49;48.99;99675.81;4947899;29;20038;-74
2021/10/04 12:45:56;;;;;;;2.00;0.68;;;;;;;19.07;50.29;99687.03;4955488;29;20475;-74
2021/10/04 12:48:38;;;;;;;8.83;0.50;;;;;;;18.67;51.37;99697.50;4924472;29;20032;-76
2021/10/04 12:51:10;;;;;;;1.88;0.60;;;;;;;18.14;52.77;99685.16;4945912;29;20043;-76
2021/10/04 12:53:59;;;;;;;4.45;0.73;;;;;;;17.76;53.21;99680.47;4947965;28;20027;-77
2021/10/04 12:56:48;;;;;;;;;;;;;;;;;;;;;
2021/10/04 12:59:27;;;;;;;;;;;;;;;;;;;;;
2021/10/04 13:02:25;;;;;;;1.23;0.60;;;;;;;17.52;55.24;99673.56;4943200;29;20083;-75
2021/10/04 13:07:37;;;;;;;8.52;1.13;;;;;;;17.24;55.03;99679.50;4944821;29;20143;-75
2021/10/04 13:10:10;;;;;;;3.60;0.43;;;;;;;17.07;55.12;99691.41;4924182;29;20067;-74
2021/10/04 13:12:47;;;;;;;2.58;0.77;;;;;;;16.69;55.30;99671.91;4927665;29;20392;-73
2021/10/04 13:15:24;;;;;;;3.20;0.95;;;;;;;16.52;56.21;99678.25;4921490;29;20042;-76
2021/10/04 13:18:00;;;;;;;8.48;0.60;;;;;;;16.07;57.38;99651.75;4960680;29;20023;-72
2021/10/04 13:20:31;;;;;;;2.25;0.93;;;;;;;15.75;58.02;99656.50;4944901;29;20493;-74
2021/10/04 13:23:16;;;;;;;;;;;;;;;;;;;;;
2021/10/04 13:25:42;;;;;;;5.13;0.52;;;;;;;15.33;66.97;99667.00;4961914;28;20075;-77
2021/10/04 13:28:16;;;;;;;5.55;0.63;;;;;;;14.99;68.91;99674.75;4947590;28;20090;-77
2021/10/04 13:30:54;;;;;;;;;;;;;;;;;;;;;
2021/10/04 13:33:49;;;;;;;;;;;;;;;;;;;;;
2021/10/04 13:36:41;;;;;;;3.42;0.32;;;;;;;14.45;74.01;99693.91;4966728;29;20139;-76
2021/10/04 13:39:19;;;;;;;;;;;;;;;;;;;;;
2021/10/04 13:41:54;;;;;;;7.55;0.70;;;;;;;14.34;75.85;99669.69;4947125;29;20083;-75
2021/10/04 13:44:40;;;;;;;;;;;;;;;;;;;;;
2021/10/04 13:47:09;;;;;;;5.38;1.23;;;;;;;14.96;74.23;99669.09;4941198;29;20127;-74
2021/10/04 13:49:55;;;;;;;;;;;;;;;;;;;;;
2021/10/04 13:52:23;;;;;;;6.65;0.93;;;;;;;15.30;69.94;99667.66;4941208;29;20026;-73
2021/10/04 13:54:54;;;;;;;3.05;0.80;;;;;;;15.45;68.73;99660.91;4941619;29;20035;-76
2021/10/04 13:57:33;;;;;;;;;;;;;;;;;;;;;
2021/10/04 14:00:11;;;;;;;4.13;1.15;;;;;;;15.49;67.90;99670.16;4941569;29;20136;-74
2021/10/04 14:03:22;;;;;;;;;;;;;;;;;;;;;
2021/10/04 14:05:52;;;;;;;4.88;1.00;;;;;;;15.29;67.54;99666.06;4940424;29;20084;-74
2021/10/04 14:08:24;;;;;;;6.15;0.80;;;;;;;15.12;66.93;99653.00;4941918;29;20034;-74
2021/10/04 14:10:52;;;;;;;6.20;1.38;;;;;;;15.14;66.86;99648.78;4929474;29;20024;-74
2021/10/04 14:13:25;;;;;;;4.93;1.15;;;;;;;15.15;66.23;99655.09;4925360;29;20039;-74
2021/10/04 14:15:54;;;;;;;3.92;0.93;;;;;;;15.26;66.24;99655.63;4907645;29;20038;-75
2021/10/04 14:18:20;;;;;;;6.28;1.08;;;;;;;15.36;66.05;99650.69;4925981;29;20027;-77
2021/10/04 14:20:48;;;;;;;2.80;1.10;;;;;;;15.51;65.65;99668.72;4920712;29;20042;-76
2021/10/04 14:23:58;;;;;;;6.00;0.98;;;;;;;15.60;65.02;99651.44;4945588;29;20023;-75
2021/10/04 14:36:07;;;;;;;3.15;1.15;;;;;;;15.96;64.23;99672.47;4963567;28;20047;-73
2021/10/04 14:38:38;;;;;;;7.00;1.65;;;;;;;15.82;65.12;99651.38;4948335;28;20042;-73
2021/10/04 14:41:04;;;;;;;7.07;1.83;;;;;;;15.69;64.85;99646.75;4975599;28;20322;-74
2021/10/04 14:44:08;;;;;;;4.93;1.08;;;;;;;15.82;64.97;99653.31;4956714;28;20027;-74
2021/10/04 14:47:36;;;;;;;;;;;;;;;;;;;;;
2021/10/04 14:50:52;;;;;;;1.48;0.90;;;;;;;15.62;66.19;99647.22;4840868;29;20041;-76
2021/10/04 14:54:14;;;;;;;;;;;;;;;;;;;;;
2021/10/04 14:56:55;;;;;;;5.35;1.27;;;;;;;15.69;66.15;99646.75;4952089;28;20039;-75
2021/10/04 14:59:21;;;;;;;5.90;1.13;;;;;;;15.57;66.18;99632.78;4950236;28;20031;-75
2021/10/04 15:01:49;;;;;;;4.38;1.05;;;;;;;15.62;66.12;99629.88;4939298;29;20049;-76
2021/10/04 15:04:24;;;;;;;7.05;1.23;;;;;;;15.58;66.21;99626.97;4934104;29;20032;-75
2021/10/04 15:06:50;;;;;;;2.92;0.80;;;;;;;15.59;66.31;99619.50;4937639;29;20047;-75
2021/10/04 15:09:26;;;;;;;;;;;;;;;;;;;;;
2021/10/04 15:12:02;;;;;;;6.43;1.67;;;;;;;15.63;66.18;99615.78;4907520;29;20111;-75
2021/10/04 15:14:30;;;;;;;3.03;0.98;;;;;;;15.65;66.08;99613.53;4907334;29;20032;-75
2021/10/04 15:16:58;;;;;;;7.32;0.90;;;;;;;15.93;66.06;99635.34;4896685;29;20070;-74
2021/10/04 15:19:24;;;;;;;7.70;1.55;;;;;;;16.04;65.82;99616.53;4898349;29;20556;-75
2021/10/04 15:26:00;;;;;;;7.15;1.27;;;;;;;16.28;65.62;99629.06;4954212;28;20054;-74
2021/10/04 15:29:39;;;;;;;;;;;;;;;;;;;;;
2021/10/04 15:32:03;;;;;;;4.88;2.63;;;;;;;15.86;66.96;99622.03;4900218;28;20039;-75
2021/10/04 15:34:28;;;;;;;7.85;1.48;;;;;;;15.79;67.45;99629.94;4956412;28;20059;-75
2021/10/04 15:36:55;;;;;;;3.22;1.17;;;;;;;15.84;67.85;99631.75;4976786;28;20088;-74
2021/10/04 15:39:28;;;;;;;5.88;1.88;;;;;;;15.84;68.13;99609.69;4939006;28;20035;-73
2021/10/04 15:42:46;;;;;;;7.65;1.63;;;;;;;16.26;67.25;99631.34;4937699;28;20071;-74
2021/10/04 15:45:16;;;;;;;5.07;0.88;;;;;;;16.47;65.90;99624.03;4971927;28;20482;-73
2021/10/04 15:47:44;;;;;;;7.70;1.23;;;;;;;16.54;65.48;99624.38;4956749;28;20038;-73
2021/10/04 15:50:24;;;;;;;;;;;;;;;;;;;;;
2021/10/04 16:03:02;;;;;;;6.13;1.27;;;;;;;16.05;65.72;99620.94;4896475;29;20399;-75
2021/10/04 16:06:15;;;;;;;7.07;1.75;;;;;;;16.12;65.59;99623.19;4891032;29;20115;-76
2021/10/04 16:09:33;;;;;;;;;;;;;;;;;;;;;
2021/10/04 16:11:59;;;;;;;6.00;1.48;;;;;;;15.97;65.84;99607.94;4860002;29;20035;-76
2021/10/04 16:15:13;;;;;;;7.35;1.60;;;;;;;15.85;65.96;99600.28;4926240;28;20039;-75
2021/10/04 16:18:12;;;;;;;2.53;1.13;;;;;;;15.96;65.80;99601.63;4946855;28;20046;-76
2021/10/04 16:20:40;;;;;;;8.55;1.45;;;;;;;15.76;66.05;99583.72;4974940;28;20038;-75
2021/10/04 16:23:21;;;;;;;;;;;;;;;;;;;;;
2021/10/04 16:25:47;;;;;;;9.95;1.17;;;;;;;15.58;66.51;99579.28;4971762;28;20056;-76
2021/10/04 16:31:48;;;;;;;8.18;0.63;;;;;;;15.59;66.81;99589.19;4893847;29;20160;-73
2021/10/04 16:58:59;;;;;;;1.90;0.68;;;;;;;15.74;66.61;99560.34;4889132;29;20048;-74
2021/10/04 17:01:48;;;;;;;7.35;0.80;;;;;;;15.68;66.39;99549.50;4888766;29;20126;-73
2021/10/04 17:07:21;;;;;;;4.75;0.90;;;;;;;15.59;66.70;99554.16;4945382;29;20028;-73
2021/10/04 17:09:56;;;;;;;5.18;1.45;;;;;;;15.55;66.77;99553.19;4939486;29;20046;-73
2021/10/04 17:12:31;;;;;;;;;;;;;;;;;;;;;
2021/10/04 17:15:08;;;;;;;2.90;1.20;;;;;;;15.29;67.35;99539.34;4952062;28;20460;-74
2021/10/04 17:17:36;;;;;;;1.33;0.93;;;;;;;15.19;68.11;99532.97;4940355;29;20131;-74